sensor_id;sensor_type;location;lat;lon;timestamp;pressure;altitude;pressure_sealevel;temperature;humidity
17260;BME280;8746;49.230;9.220;2023-11-22T00:02:18;100351.13;;;5.10;100.00
17260;BME280;8746;49.230;9.220;2023-11-22T00:04:43;100350.19;;;5.16;100.00
17260;BME280;8746;49.230;9.220;2023-11-22T00:07:09;100352.91;;;5.07;100.00
17260;BME280;8746;49.230;9.220;2023-11-22T00:09:34;100344.19;;;5.08;100.00
17260;BME280;8746;49.230;9.220;2023-11-22T00:11:59;100351.88;;;5.19;100.00
17260;BME280;8746;49.230;9.220;2023-11-22T00:14:25;100351.00;;;5.21;100.00
17260;BME280;8746;49.230;9.220;2023-11-22T00:16:51;100363.19;;;5.22;100.00
17260;BME280;8746;49.230;9.220;2023-11-22T00:19:16;100360.59;;;5.21;100.00
17260;BME280;8746;49.230;9.220;2023-11-22T00:21:43;100351.00;;;5.21;100.00
17260;BME280;8746;49.230;9.220;2023-11-22T00:24:09;100357.41;;;4.95;100.00
17260;BME280;8746;49.230;9.220;2023-11-22T00:26:34;100366.13;;;4.93;100.00
17260;BME280;8746;49.230;9.220;2023-11-22T00:29:00;100369.56;;;4.96;100.00
17260;BME280;8746;49.230;9.220;2023-11-22T00:31:25;100375.81;;;4.85;100.00
17260;BME280;8746;49.230;9.220;2023-11-22T00:33:50;100371.28;;;5.01;100.00
17260;BME280;8746;49.230;9.220;2023-11-22T00:36:16;100370.34;;;5.05;100.00
17260;BME280;8746;49.230;9.220;2023-11-22T00:38:41;100358.19;;;5.02;100.00
17260;BME280;8746;49.230;9.220;2023-11-22T00:41:07;100364.28;;;5.04;100.00
17260;BME280;8746;49.230;9.220;2023-11-22T00:43:33;100366.88;;;5.06;100.00
17260;BME280;8746;49.230;9.220;2023-11-22T00:45:58;100365.13;;;5.08;100.00
17260;BME280;8746;49.230;9.220;2023-11-22T00:48:24;100370.50;;;4.92;100.00
17260;BME280;8746;49.230;9.220;2023-11-22T00:50:50;100380.88;;;4.98;100.00
17260;BME280;8746;49.230;9.220;2023-11-22T00:53:16;100373.97;;;4.94;100.00
17260;BME280;8746;49.230;9.220;2023-11-22T00:55:43;100379.22;;;4.91;100.00
17260;BME280;8746;49.230;9.220;2023-11-22T00:58:08;100383.56;;;4.89;100.00
17260;BME280;8746;49.230;9.220;2023-11-22T01:00:34;100389.66;;;4.94;100.00
17260;BME280;8746;49.230;9.220;2023-11-22T01:02:59;100388.88;;;4.83;100.00
17260;BME280;8746;49.230;9.220;2023-11-22T01:05:24;100395.03;;;4.76;99.65
17260;BME280;8746;49.230;9.220;2023-11-22T01:07:50;100394.19;;;4.75;99.94
17260;BME280;8746;49.230;9.220;2023-11-22T01:10:15;100406.38;;;4.76;98.40
17260;BME280;8746;49.230;9.220;2023-11-22T01:12:41;100408.22;;;4.63;99.26
17260;BME280;8746;49.230;9.220;2023-11-22T01:15:07;100409.13;;;4.56;99.75
17260;BME280;8746;49.230;9.220;2023-11-22T01:17:33;100421.31;;;4.57;99.57
17260;BME280;8746;49.230;9.220;2023-11-22T01:19:59;100425.66;;;4.63;100.00
17260;BME280;8746;49.230;9.220;2023-11-22T01:22:25;100426.50;;;4.67;100.00
17260;BME280;8746;49.230;9.220;2023-11-22T01:24:50;100429.19;;;4.53;97.64
17260;BME280;8746;49.230;9.220;2023-11-22T01:27:15;100430.09;;;4.53;98.08
17260;BME280;8746;49.230;9.220;2023-11-22T01:29:41;100431.81;;;4.54;99.47
17260;BME280;8746;49.230;9.220;2023-11-22T01:32:07;100436.19;;;4.51;99.24
17260;BME280;8746;49.230;9.220;2023-11-22T01:34:34;100440.59;;;4.44;100.00
17260;BME280;8746;49.230;9.220;2023-11-22T01:37:00;100440.75;;;4.19;100.00
17260;BME280;8746;49.230;9.220;2023-11-22T01:39:25;100436.38;;;4.24;100.00
17260;BME280;8746;49.230;9.220;2023-11-22T01:41:51;100442.47;;;4.23;100.00
17260;BME280;8746;49.230;9.220;2023-11-22T01:44:17;100451.16;;;4.25;100.00
17260;BME280;8746;49.230;9.220;2023-11-22T01:46:43;100452.09;;;4.15;100.00
17260;BME280;8746;49.230;9.220;2023-11-22T01:49:10;100453.84;;;4.10;100.00
17260;BME280;8746;49.230;9.220;2023-11-22T01:51:40;100463.47;;;4.03;100.00
17260;BME280;8746;49.230;9.220;2023-11-22T01:54:07;100468.75;;;3.92;100.00
17260;BME280;8746;49.230;9.220;2023-11-22T01:56:35;100472.19;;;4.00;100.00
17260;BME280;8746;49.230;9.220;2023-11-22T01:59:00;100469.63;;;3.93;100.00
17260;BME280;8746;49.230;9.220;2023-11-22T02:01:26;100484.41;;;3.95;100.00
17260;BME280;8746;49.230;9.220;2023-11-22T02:03:52;100478.31;;;3.92;100.00
17260;BME280;8746;49.230;9.220;2023-11-22T02:06:19;100486.16;;;3.87;100.00
17260;BME280;8746;49.230;9.220;2023-11-22T02:08:44;100496.59;;;3.89;100.00
17260;BME280;8746;49.230;9.220;2023-11-22T02:11:10;100500.06;;;3.92;100.00
17260;BME280;8746;49.230;9.220;2023-11-22T02:13:35;100493.19;;;3.73;100.00
17260;BME280;8746;49.230;9.220;2023-11-22T02:16:02;100481.88;;;3.69;100.00
17260;BME280;8746;49.230;9.220;2023-11-22T02:18:28;100487.09;;;3.69;100.00
17260;BME280;8746;49.230;9.220;2023-11-22T02:20:54;100482.78;;;3.60;100.00
17260;BME280;8746;49.230;9.220;2023-11-22T02:23:19;100475.81;;;3.55;100.00
17260;BME280;8746;49.230;9.220;2023-11-22T02:25:45;100474.97;;;3.49;100.00
17260;BME280;8746;49.230;9.220;2023-11-22T02:28:13;100481.09;;;3.50;100.00
17260;BME280;8746;49.230;9.220;2023-11-22T02:30:39;100478.47;;;3.45;100.00
17260;BME280;8746;49.230;9.220;2023-11-22T02:33:05;100493.25;;;3.42;100.00
17260;BME280;8746;49.230;9.220;2023-11-22T02:35:30;100492.41;;;3.38;100.00
17260;BME280;8746;49.230;9.220;2023-11-22T02:37:57;100490.66;;;3.42;100.00
17260;BME280;8746;49.230;9.220;2023-11-22T02:40:22;100499.34;;;3.41;100.00
17260;BME280;8746;49.230;9.220;2023-11-22T02:42:50;100495.88;;;3.34;100.00
17260;BME280;8746;49.230;9.220;2023-11-22T02:45:17;100493.28;;;3.29;100.00
17260;BME280;8746;49.230;9.220;2023-11-22T02:47:48;100506.31;;;3.32;100.00
17260;BME280;8746;49.230;9.220;2023-11-22T02:50:15;100509.81;;;3.28;100.00
17260;BME280;8746;49.230;9.220;2023-11-22T02:52:41;100515.91;;;3.30;100.00
17260;BME280;8746;49.230;9.220;2023-11-22T02:55:07;100527.16;;;3.43;100.00
17260;BME280;8746;49.230;9.220;2023-11-22T02:57:35;100533.25;;;3.41;100.00
17260;BME280;8746;49.230;9.220;2023-11-22T03:00:02;100530.63;;;3.44;100.00
17260;BME280;8746;49.230;9.220;2023-11-22T03:02:30;100534.13;;;3.44;100.00
17260;BME280;8746;49.230;9.220;2023-11-22T03:04:57;100543.69;;;3.41;100.00
17260;BME280;8746;49.230;9.220;2023-11-22T03:07:23;100555.00;;;3.40;100.00
17260;BME280;8746;49.230;9.220;2023-11-22T03:09:49;100543.69;;;3.47;100.00
17260;BME280;8746;49.230;9.220;2023-11-22T03:12:15;100548.88;;;3.53;100.00
17260;BME280;8746;49.230;9.220;2023-11-22T03:14:41;100557.59;;;3.49;100.00
17260;BME280;8746;49.230;9.220;2023-11-22T03:17:06;100548.91;;;3.56;100.00
17260;BME280;8746;49.230;9.220;2023-11-22T03:19:31;100548.88;;;3.55;100.00
17260;BME280;8746;49.230;9.220;2023-11-22T03:21:59;100541.06;;;3.56;100.00
17260;BME280;8746;49.230;9.220;2023-11-22T03:24:24;100541.94;;;3.49;100.00
17260;BME280;8746;49.230;9.220;2023-11-22T03:26:50;100553.25;;;3.49;100.00
17260;BME280;8746;49.230;9.220;2023-11-22T03:29:15;100561.91;;;3.59;100.00
17260;BME280;8746;49.230;9.220;2023-11-22T03:31:44;100563.66;;;3.56;100.00
17260;BME280;8746;49.230;9.220;2023-11-22T03:34:09;100577.56;;;3.59;100.00
17260;BME280;8746;49.230;9.220;2023-11-22T03:36:35;100566.28;;;3.59;100.00
17260;BME280;8746;49.230;9.220;2023-11-22T03:39:01;100569.75;;;3.68;100.00
17260;BME280;8746;49.230;9.220;2023-11-22T03:41:26;100569.75;;;3.65;100.00
17260;BME280;8746;49.230;9.220;2023-11-22T03:43:51;100573.22;;;3.61;100.00
17260;BME280;8746;49.230;9.220;2023-11-22T03:46:17;100585.41;;;3.62;100.00
17260;BME280;8746;49.230;9.220;2023-11-22T03:48:42;100591.50;;;3.67;100.00
17260;BME280;8746;49.230;9.220;2023-11-22T03:51:08;100588.88;;;3.64;98.79
17260;BME280;8746;49.230;9.220;2023-11-22T03:53:33;100589.72;;;3.68;100.00
17260;BME280;8746;49.230;9.220;2023-11-22T03:55:58;100584.53;;;3.66;100.00
17260;BME280;8746;49.230;9.220;2023-11-22T03:58:24;100583.66;;;3.66;100.00
17260;BME280;8746;49.230;9.220;2023-11-22T04:00:49;100583.66;;;3.67;99.79
17260;BME280;8746;49.230;9.220;2023-11-22T04:03:16;100584.50;;;3.79;99.82
17260;BME280;8746;49.230;9.220;2023-11-22T04:05:44;100593.22;;;3.75;98.68
17260;BME280;8746;49.230;9.220;2023-11-22T04:08:09;100580.16;;;3.72;98.34
17260;BME280;8746;49.230;9.220;2023-11-22T04:10:35;100589.72;;;3.74;98.67
17260;BME280;8746;49.230;9.220;2023-11-22T04:13:00;100594.06;;;3.71;99.37
17260;BME280;8746;49.230;9.220;2023-11-22T04:15:26;100595.81;;;3.67;98.61
17260;BME280;8746;49.230;9.220;2023-11-22T04:17:52;100591.47;;;3.64;98.74
17260;BME280;8746;49.230;9.220;2023-11-22T04:20:19;100587.16;;;3.63;99.52
17260;BME280;8746;49.230;9.220;2023-11-22T04:22:45;100588.00;;;3.64;100.00
17260;BME280;8746;49.230;9.220;2023-11-22T04:25:11;100591.47;;;3.64;99.98
17260;BME280;8746;49.230;9.220;2023-11-22T04:27:40;100608.00;;;3.77;99.50
17260;BME280;8746;49.230;9.220;2023-11-22T04:30:07;100614.09;;;3.73;99.58
17260;BME280;8746;49.230;9.220;2023-11-22T04:32:40;100617.56;;;3.71;100.00
17260;BME280;8746;49.230;9.220;2023-11-22T04:35:07;100624.53;;;3.73;99.13
17260;BME280;8746;49.230;9.220;2023-11-22T04:37:32;100639.31;;;3.68;99.28
17260;BME280;8746;49.230;9.220;2023-11-22T04:40:01;100641.91;;;3.74;100.00
17260;BME280;8746;49.230;9.220;2023-11-22T04:42:27;100641.03;;;3.86;97.47
17260;BME280;8746;49.230;9.220;2023-11-22T04:44:54;100639.31;;;3.79;98.51
17260;BME280;8746;49.230;9.220;2023-11-22T04:47:19;100642.78;;;3.81;100.00
17260;BME280;8746;49.230;9.220;2023-11-22T04:49:44;100659.31;;;3.84;99.16
17260;BME280;8746;49.230;9.220;2023-11-22T04:52:10;100658.47;;;3.68;97.08
17260;BME280;8746;49.230;9.220;2023-11-22T04:54:35;100656.72;;;3.61;96.63
17260;BME280;8746;49.230;9.220;2023-11-22T04:57:00;100670.66;;;3.59;95.99
17260;BME280;8746;49.230;9.220;2023-11-22T04:59:25;100667.16;;;3.55;95.56
17260;BME280;8746;49.230;9.220;2023-11-22T05:01:51;100683.66;;;3.37;92.98
17260;BME280;8746;49.230;9.220;2023-11-22T05:04:16;100682.78;;;3.13;91.98
17260;BME280;8746;49.230;9.220;2023-11-22T05:06:43;100691.44;;;3.15;91.29
17260;BME280;8746;49.230;9.220;2023-11-22T05:09:09;100696.66;;;3.12;93.22
17260;BME280;8746;49.230;9.220;2023-11-22T05:11:36;100702.72;;;3.05;91.79
17260;BME280;8746;49.230;9.220;2023-11-22T05:14:01;100703.56;;;2.98;90.18
17260;BME280;8746;49.230;9.220;2023-11-22T05:16:27;100707.03;;;2.98;89.34
17260;BME280;8746;49.230;9.220;2023-11-22T05:18:52;100715.75;;;2.97;88.87
17260;BME280;8746;49.230;9.220;2023-11-22T05:21:18;100717.47;;;3.04;89.12
17260;BME280;8746;49.230;9.220;2023-11-22T05:23:43;100710.50;;;2.94;88.89
17260;BME280;8746;49.230;9.220;2023-11-22T05:26:08;100703.56;;;2.90;89.34
17260;BME280;8746;49.230;9.220;2023-11-22T05:28:34;100707.84;;;2.83;90.24
17260;BME280;8746;49.230;9.220;2023-11-22T05:30:59;100709.56;;;2.75;88.34
17260;BME280;8746;49.230;9.220;2023-11-22T05:33:25;100700.94;;;2.85;87.47
17260;BME280;8746;49.230;9.220;2023-11-22T05:35:51;100700.00;;;2.72;87.27
17260;BME280;8746;49.230;9.220;2023-11-22T05:38:17;100713.00;;;2.68;88.17
17260;BME280;8746;49.230;9.220;2023-11-22T05:40:42;100706.00;;;2.59;87.58
17260;BME280;8746;49.230;9.220;2023-11-22T05:43:08;100716.50;;;2.67;88.12
17260;BME280;8746;49.230;9.220;2023-11-22T05:45:35;100713.81;;;2.59;88.16
17260;BME280;8746;49.230;9.220;2023-11-22T05:48:00;100719.03;;;2.56;87.49
17260;BME280;8746;49.230;9.220;2023-11-22T05:50:26;100729.44;;;2.50;87.45
17260;BME280;8746;49.230;9.220;2023-11-22T05:52:51;100732.84;;;2.43;87.44
17260;BME280;8746;49.230;9.220;2023-11-22T05:55:17;100735.38;;;2.33;87.23
17260;BME280;8746;49.230;9.220;2023-11-22T05:57:43;100750.19;;;2.39;86.41
17260;BME280;8746;49.230;9.220;2023-11-22T06:00:09;100759.72;;;2.34;85.92
17260;BME280;8746;49.230;9.220;2023-11-22T06:02:35;100763.09;;;2.25;87.12
17260;BME280;8746;49.230;9.220;2023-11-22T06:05:02;100766.56;;;2.22;86.01
17260;BME280;8746;49.230;9.220;2023-11-22T06:07:28;100767.38;;;2.14;85.68
17260;BME280;8746;49.230;9.220;2023-11-22T06:09:53;100776.16;;;2.30;86.40
17260;BME280;8746;49.230;9.220;2023-11-22T06:12:18;100776.06;;;2.19;84.19
17260;BME280;8746;49.230;9.220;2023-11-22T06:14:46;100781.28;;;2.16;86.88
17260;BME280;8746;49.230;9.220;2023-11-22T06:17:11;100790.03;;;2.24;83.96
17260;BME280;8746;49.230;9.220;2023-11-22T06:19:37;100798.59;;;2.11;84.43
17260;BME280;8746;49.230;9.220;2023-11-22T06:22:02;100811.56;;;2.06;85.24
17260;BME280;8746;49.230;9.220;2023-11-22T06:24:28;100810.63;;;1.96;85.41
17260;BME280;8746;49.230;9.220;2023-11-22T06:26:53;100816.78;;;2.06;87.34
17260;BME280;8746;49.230;9.220;2023-11-22T06:29:19;100819.47;;;2.17;86.83
17260;BME280;8746;49.230;9.220;2023-11-22T06:31:45;100816.88;;;2.18;87.63
17260;BME280;8746;49.230;9.220;2023-11-22T06:34:11;100813.28;;;2.05;87.37
17260;BME280;8746;49.230;9.220;2023-11-22T06:36:37;100826.34;;;2.08;85.51
17260;BME280;8746;49.230;9.220;2023-11-22T06:39:03;100826.28;;;2.04;86.41
17260;BME280;8746;49.230;9.220;2023-11-22T06:41:29;100830.63;;;2.03;87.21
17260;BME280;8746;49.230;9.220;2023-11-22T06:43:55;100841.78;;;1.91;85.40
17260;BME280;8746;49.230;9.220;2023-11-22T06:46:20;100846.88;;;1.78;86.43
17260;BME280;8746;49.230;9.220;2023-11-22T06:48:46;100847.59;;;1.66;87.58
17260;BME280;8746;49.230;9.220;2023-11-22T06:51:14;100847.72;;;1.76;87.31
17260;BME280;8746;49.230;9.220;2023-11-22T06:53:39;100842.47;;;1.72;87.92
17260;BME280;8746;49.230;9.220;2023-11-22T06:56:05;100847.84;;;1.89;87.21
17260;BME280;8746;49.230;9.220;2023-11-22T06:58:30;100853.56;;;1.57;87.88
17260;BME280;8746;49.230;9.220;2023-11-22T07:00:55;100852.56;;;1.44;88.05
17260;BME280;8746;49.230;9.220;2023-11-22T07:03:21;100853.66;;;1.66;88.86
17260;BME280;8746;49.230;9.220;2023-11-22T07:05:46;100867.25;;;1.40;87.01
17260;BME280;8746;49.230;9.220;2023-11-22T07:08:12;100862.88;;;1.39;87.87
17260;BME280;8746;49.230;9.220;2023-11-22T07:10:37;100875.31;;;1.64;90.73
17260;BME280;8746;49.230;9.220;2023-11-22T07:13:03;100867.63;;;1.71;89.23
17260;BME280;8746;49.230;9.220;2023-11-22T07:15:28;100877.91;;;1.62;88.05
17260;BME280;8746;49.230;9.220;2023-11-22T07:17:54;100886.59;;;1.64;88.99
17260;BME280;8746;49.230;9.220;2023-11-22T07:20:20;100901.38;;;1.67;87.68
17260;BME280;8746;49.230;9.220;2023-11-22T07:22:45;100895.13;;;1.54;89.23
17260;BME280;8746;49.230;9.220;2023-11-22T07:25:11;100903.84;;;1.54;87.53
17260;BME280;8746;49.230;9.220;2023-11-22T07:27:46;100910.66;;;1.48;86.99
17260;BME280;8746;49.230;9.220;2023-11-22T07:30:13;100911.06;;;1.11;86.36
17260;BME280;8746;49.230;9.220;2023-11-22T07:32:41;100919.75;;;1.13;87.52
17260;BME280;8746;49.230;9.220;2023-11-22T07:35:07;100922.19;;;1.01;89.56
17260;BME280;8746;49.230;9.220;2023-11-22T07:37:37;100908.59;;;1.22;90.16
17260;BME280;8746;49.230;9.220;2023-11-22T07:40:08;100905.25;;;1.31;89.65
17260;BME280;8746;49.230;9.220;2023-11-22T07:42:35;100905.38;;;1.38;88.49
17260;BME280;8746;49.230;9.220;2023-11-22T07:45:01;100910.66;;;1.48;89.10
17260;BME280;8746;49.230;9.220;2023-11-22T07:47:26;100915.16;;;1.58;86.39
17260;BME280;8746;49.230;9.220;2023-11-22T07:49:52;100909.19;;;1.68;86.55
17260;BME280;8746;49.230;9.220;2023-11-22T07:52:17;100909.25;;;1.71;88.74
17260;BME280;8746;49.230;9.220;2023-11-22T07:54:42;100911.00;;;1.75;85.06
17260;BME280;8746;49.230;9.220;2023-11-22T07:57:09;100909.88;;;1.53;84.61
17260;BME280;8746;49.230;9.220;2023-11-22T07:59:35;100911.66;;;1.56;84.24
17260;BME280;8746;49.230;9.220;2023-11-22T08:02:02;100916.00;;;1.57;85.40
17260;BME280;8746;49.230;9.220;2023-11-22T08:04:27;100922.00;;;1.53;84.23
17260;BME280;8746;49.230;9.220;2023-11-22T08:06:57;100916.69;;;1.42;84.92
17260;BME280;8746;49.230;9.220;2023-11-22T08:09:23;100918.22;;;1.29;84.42
17260;BME280;8746;49.230;9.220;2023-11-22T08:11:49;100919.91;;;1.24;85.37
17260;BME280;8746;49.230;9.220;2023-11-22T08:14:15;100917.50;;;1.39;89.44
17260;BME280;8746;49.230;9.220;2023-11-22T08:16:41;100908.97;;;1.50;87.02
17260;BME280;8746;49.230;9.220;2023-11-22T08:19:08;100905.69;;;1.65;86.06
17260;BME280;8746;49.230;9.220;2023-11-22T08:21:34;100909.91;;;1.55;86.04
17260;BME280;8746;49.230;9.220;2023-11-22T08:23:59;100915.72;;;1.35;85.70
17260;BME280;8746;49.230;9.220;2023-11-22T08:26:25;100925.22;;;1.33;85.23
17260;BME280;8746;49.230;9.220;2023-11-22T08:28:51;100927.09;;;1.42;87.13
17260;BME280;8746;49.230;9.220;2023-11-22T08:31:16;100928.31;;;1.73;85.65
17260;BME280;8746;49.230;9.220;2023-11-22T08:33:41;100934.84;;;1.39;84.47
17260;BME280;8746;49.230;9.220;2023-11-22T08:36:08;100935.00;;;1.51;85.63
17260;BME280;8746;49.230;9.220;2023-11-22T08:38:37;100936.91;;;1.66;84.92
17260;BME280;8746;49.230;9.220;2023-11-22T08:41:06;100943.75;;;1.58;85.51
17260;BME280;8746;49.230;9.220;2023-11-22T08:43:33;100954.69;;;1.34;84.27
17260;BME280;8746;49.230;9.220;2023-11-22T08:45:59;100952.50;;;1.66;87.22
17260;BME280;8746;49.230;9.220;2023-11-22T08:48:25;100946.38;;;1.59;84.89
17260;BME280;8746;49.230;9.220;2023-11-22T08:50:51;100938.97;;;1.95;85.75
17260;BME280;8746;49.230;9.220;2023-11-22T08:53:19;100937.22;;;1.91;84.92
17260;BME280;8746;49.230;9.220;2023-11-22T08:55:45;100937.03;;;1.74;84.13
17260;BME280;8746;49.230;9.220;2023-11-22T08:58:10;100928.44;;;1.84;84.96
17260;BME280;8746;49.230;9.220;2023-11-22T09:00:36;100929.50;;;2.00;85.39
17260;BME280;8746;49.230;9.220;2023-11-22T09:03:02;100922.81;;;2.26;84.18
17260;BME280;8746;49.230;9.220;2023-11-22T09:05:28;100920.22;;;2.27;83.15
17260;BME280;8746;49.230;9.220;2023-11-22T09:07:53;100913.88;;;2.00;82.75
17260;BME280;8746;49.230;9.220;2023-11-22T09:10:20;100923.31;;;1.92;82.75
17260;BME280;8746;49.230;9.220;2023-11-22T09:12:47;100918.66;;;1.62;83.22
17260;BME280;8746;49.230;9.220;2023-11-22T09:15:13;100928.16;;;1.59;83.42
17260;BME280;8746;49.230;9.220;2023-11-22T09:17:42;100937.34;;;2.03;83.54
17260;BME280;8746;49.230;9.220;2023-11-22T09:20:17;100928.56;;;1.95;83.47
17260;BME280;8746;49.230;9.220;2023-11-22T09:22:48;100928.63;;;1.98;84.35
17260;BME280;8746;49.230;9.220;2023-11-22T09:25:22;100927.78;;;2.02;80.69
17260;BME280;8746;49.230;9.220;2023-11-22T09:27:49;100935.41;;;1.87;82.26
17260;BME280;8746;49.230;9.220;2023-11-22T09:30:20;100941.94;;;2.29;84.39
17260;BME280;8746;49.230;9.220;2023-11-22T09:35:23;100944.56;;;2.32;81.71
17260;BME280;8746;49.230;9.220;2023-11-22T09:37:48;100950.31;;;2.00;81.36
17260;BME280;8746;49.230;9.220;2023-11-22T09:40:17;100952.31;;;2.26;81.99
17260;BME280;8746;49.230;9.220;2023-11-22T09:42:44;100954.91;;;2.26;81.52
17260;BME280;8746;49.230;9.220;2023-11-22T09:45:16;100960.84;;;2.10;80.40
17260;BME280;8746;49.230;9.220;2023-11-22T09:47:43;100970.72;;;2.42;82.89
17260;BME280;8746;49.230;9.220;2023-11-22T09:50:17;100973.84;;;2.10;80.99
17260;BME280;8746;49.230;9.220;2023-11-22T09:52:47;100971.44;;;2.28;80.22
17260;BME280;8746;49.230;9.220;2023-11-22T09:55:14;100978.22;;;2.14;81.41
17260;BME280;8746;49.230;9.220;2023-11-22T09:57:40;100971.06;;;1.92;79.72
17260;BME280;8746;49.230;9.220;2023-11-22T10:00:08;100981.47;;;1.94;80.40
17260;BME280;8746;49.230;9.220;2023-11-22T10:02:39;100983.38;;;2.07;82.50
17260;BME280;8746;49.230;9.220;2023-11-22T10:05:06;100990.53;;;2.27;81.83
17260;BME280;8746;49.230;9.220;2023-11-22T10:07:32;100994.81;;;2.25;82.16
17260;BME280;8746;49.230;9.220;2023-11-22T10:09:57;100993.25;;;2.38;81.95
17260;BME280;8746;49.230;9.220;2023-11-22T10:12:29;100988.94;;;2.40;80.94
17260;BME280;8746;49.230;9.220;2023-11-22T10:14:55;100982.31;;;2.75;80.79
17260;BME280;8746;49.230;9.220;2023-11-22T10:17:21;100982.41;;;2.88;79.41
17260;BME280;8746;49.230;9.220;2023-11-22T10:19:47;100997.34;;;3.10;79.50
17260;BME280;8746;49.230;9.220;2023-11-22T10:22:12;100991.06;;;2.87;80.25
17260;BME280;8746;49.230;9.220;2023-11-22T10:24:43;100990.84;;;2.60;81.41
17260;BME280;8746;49.230;9.220;2023-11-22T10:27:10;100990.91;;;2.64;80.48
17260;BME280;8746;49.230;9.220;2023-11-22T10:29:36;100980.53;;;2.70;79.35
17260;BME280;8746;49.230;9.220;2023-11-22T10:32:03;100974.50;;;2.78;79.83
17260;BME280;8746;49.230;9.220;2023-11-22T10:34:29;100980.59;;;2.78;79.26
17260;BME280;8746;49.230;9.220;2023-11-22T10:36:55;100986.88;;;3.07;80.99
17260;BME280;8746;49.230;9.220;2023-11-22T10:39:21;100984.47;;;3.33;79.04
17260;BME280;8746;49.230;9.220;2023-11-22T10:41:47;100988.75;;;3.26;79.00
17260;BME280;8746;49.230;9.220;2023-11-22T10:44:13;100982.34;;;2.79;78.95
17260;BME280;8746;49.230;9.220;2023-11-22T10:46:40;100993.66;;;2.84;78.97
17260;BME280;8746;49.230;9.220;2023-11-22T10:49:06;101003.16;;;2.78;80.14
17260;BME280;8746;49.230;9.220;2023-11-22T10:51:33;101000.63;;;2.85;78.34
17260;BME280;8746;49.230;9.220;2023-11-22T10:54:00;100999.84;;;2.93;78.86
17260;BME280;8746;49.230;9.220;2023-11-22T10:56:36;101007.56;;;2.85;79.42
17260;BME280;8746;49.230;9.220;2023-11-22T10:59:06;101009.25;;;2.80;80.08
17260;BME280;8746;49.230;9.220;2023-11-22T11:01:34;101008.66;;;3.09;81.10
17260;BME280;8746;49.230;9.220;2023-11-22T11:04:09;101008.41;;;2.81;78.54
17260;BME280;8746;49.230;9.220;2023-11-22T11:06:35;101028.31;;;2.71;79.01
17260;BME280;8746;49.230;9.220;2023-11-22T11:09:05;101019.75;;;2.86;79.71
17260;BME280;8746;49.230;9.220;2023-11-22T11:11:32;101017.22;;;2.98;79.06
17260;BME280;8746;49.230;9.220;2023-11-22T11:13:58;101014.47;;;2.77;80.10
17260;BME280;8746;49.230;9.220;2023-11-22T11:16:25;101019.00;;;2.99;79.77
17260;BME280;8746;49.230;9.220;2023-11-22T11:18:52;101025.31;;;3.32;81.00
17260;BME280;8746;49.230;9.220;2023-11-22T11:21:18;101020.16;;;3.39;78.02
17260;BME280;8746;49.230;9.220;2023-11-22T11:23:44;101011.56;;;3.55;79.10
17260;BME280;8746;49.230;9.220;2023-11-22T11:26:19;101009.78;;;3.51;78.52
17260;BME280;8746;49.230;9.220;2023-11-22T11:28:49;101020.13;;;3.35;78.24
17260;BME280;8746;49.230;9.220;2023-11-22T11:31:21;101020.78;;;3.05;78.41
17260;BME280;8746;49.230;9.220;2023-11-22T11:36:12;101029.50;;;3.10;81.45
17260;BME280;8746;49.230;9.220;2023-11-22T11:38:46;101038.31;;;3.25;80.12
17260;BME280;8746;49.230;9.220;2023-11-22T11:41:14;101031.47;;;3.44;78.39
17260;BME280;8746;49.230;9.220;2023-11-22T11:43:44;101033.34;;;3.59;79.68
17260;BME280;8746;49.230;9.220;2023-11-22T11:46:13;101025.41;;;3.43;78.08
17260;BME280;8746;49.230;9.220;2023-11-22T11:48:47;101028.75;;;3.22;79.22
17260;BME280;8746;49.230;9.220;2023-11-22T11:51:16;101033.19;;;3.39;80.83
17260;BME280;8746;49.230;9.220;2023-11-22T11:53:42;101032.38;;;3.47;79.48
17260;BME280;8746;49.230;9.220;2023-11-22T11:56:08;101052.38;;;3.45;80.40
17260;BME280;8746;49.230;9.220;2023-11-22T11:58:34;101049.69;;;3.34;80.06
17260;BME280;8746;49.230;9.220;2023-11-22T12:01:00;101051.44;;;3.39;80.36
17260;BME280;8746;49.230;9.220;2023-11-22T12:03:25;101041.97;;;3.53;79.44
17260;BME280;8746;49.230;9.220;2023-11-22T12:05:50;101047.81;;;3.13;78.63
17260;BME280;8746;49.230;9.220;2023-11-22T12:08:16;101061.03;;;3.36;78.83
17260;BME280;8746;49.230;9.220;2023-11-22T12:10:45;101070.38;;;3.14;78.21
17260;BME280;8746;49.230;9.220;2023-11-22T12:13:17;101076.47;;;3.15;76.98
17260;BME280;8746;49.230;9.220;2023-11-22T12:15:42;101064.44;;;3.29;78.24
17260;BME280;8746;49.230;9.220;2023-11-22T12:18:08;101070.63;;;3.45;77.99
17260;BME280;8746;49.230;9.220;2023-11-22T12:20:33;101076.69;;;3.41;78.37
17260;BME280;8746;49.230;9.220;2023-11-22T12:22:59;101076.63;;;3.35;79.13
17260;BME280;8746;49.230;9.220;2023-11-22T12:25:27;101082.69;;;3.34;79.78
17260;BME280;8746;49.230;9.220;2023-11-22T12:27:56;101077.44;;;3.23;78.91
17260;BME280;8746;49.230;9.220;2023-11-22T12:30:32;101064.31;;;3.14;78.35
17260;BME280;8746;49.230;9.220;2023-11-22T12:33:05;101059.25;;;3.35;80.24
17260;BME280;8746;49.230;9.220;2023-11-22T12:35:32;101065.91;;;2.99;78.68
17260;BME280;8746;49.230;9.220;2023-11-22T12:38:00;101056.34;;;2.98;78.73
17260;BME280;8746;49.230;9.220;2023-11-22T12:40:30;101065.00;;;2.93;78.71
17260;BME280;8746;49.230;9.220;2023-11-22T12:42:59;101062.44;;;3.00;80.82
17260;BME280;8746;49.230;9.220;2023-11-22T12:45:27;101055.63;;;3.16;79.97
17260;BME280;8746;49.230;9.220;2023-11-22T12:47:54;101054.69;;;3.07;80.80
17260;BME280;8746;49.230;9.220;2023-11-22T12:50:38;101037.31;;;3.09;80.55
17260;BME280;8746;49.230;9.220;2023-11-22T12:53:13;101031.88;;;2.81;80.61
17260;BME280;8746;49.230;9.220;2023-11-22T12:58:15;101044.19;;;2.97;79.17
17260;BME280;8746;49.230;9.220;2023-11-22T13:00:40;101041.66;;;3.07;79.35
17260;BME280;8746;49.230;9.220;2023-11-22T13:03:07;101044.34;;;3.16;80.19
17260;BME280;8746;49.230;9.220;2023-11-22T13:05:33;101036.53;;;3.20;80.09
17260;BME280;8746;49.230;9.220;2023-11-22T13:07:59;101041.75;;;3.20;79.19
17260;BME280;8746;49.230;9.220;2023-11-22T13:10:24;101053.06;;;3.21;80.12
17260;BME280;8746;49.230;9.220;2023-11-22T13:12:53;101053.06;;;3.19;79.82